Time;durP1;ratioP1;P1;durP2;ratioP2;P2;SDS_P1;SDS_P2;PMS_P1;PMS_P2;Temp;Humidity;BMP_temperature;BMP_pressure;BME280_temperature;BME280_humidity;BME280_pressure;Samples;Min_cycle;Max_cycle;Signal;HPM_P1;HPM_P2
2023/01/04 00:00:47;;;;;;;1.88;0.57;;;;;;;;;;4982888;28;20190;-91
2023/01/04 00:03:13;;;;;;;1.08;0.38;;;;;;;;;;4992015;28;20036;-90
2023/01/04 00:05:38;;;;;;;2.88;0.57;;;;;;;;;;4983403;28;20414;-91
2023/01/04 00:08:05;;;;;;;1.35;0.30;;;;;;;;;;4977493;28;20262;-91
2023/01/04 00:10:31;;;;;;;1.13;0.32;;;;;;;;;;4976724;28;20664;-93
2023/01/04 00:12:56;;;;;;;1.75;0.50;;;;;;;;;;4991479;28;20249;-93
2023/01/04 00:15:21;;;;;;;1.87;0.40;;;;;;;;;;5000996;28;20035;-92
2023/01/04 00:17:47;;;;;;;1.08;0.30;;;;;;;;;;4973241;28;20366;-93
2023/01/04 00:20:12;;;;;;;1.13;0.30;;;;;;;;;;4976409;28;20022;-93
2023/01/04 00:22:38;;;;;;;1.00;0.30;;;;;;;;;;4972335;28;20401;-93
2023/01/04 00:25:03;;;;;;;1.80;0.40;;;;;;;;;;4971180;28;20034;-93
2023/01/04 00:27:29;;;;;;;3.97;0.60;;;;;;;;;;4987141;28;20031;-93
2023/01/04 00:29:54;;;;;;;1.40;0.40;;;;;;;;;;4972587;28;20022;-93
2023/01/04 00:32:19;;;;;;;2.00;0.50;;;;;;;;;;4973748;28;20101;-93
2023/01/04 00:34:44;;;;;;;1.38;0.40;;;;;;;;;;4972914;28;20065;-92
2023/01/04 00:37:10;;;;;;;0.90;0.30;;;;;;;;;;4987063;28;20093;-93
2023/01/04 00:39:35;;;;;;;2.10;0.50;;;;;;;;;;4990105;28;20538;-92
2023/01/04 00:42:06;;;;;;;1.50;0.40;;;;;;;;;;4984941;28;20026;-91
2023/01/04 00:44:32;;;;;;;0.88;0.30;;;;;;;;;;4967936;28;20052;-90
2023/01/04 00:46:58;;;;;;;2.10;0.40;;;;;;;;;;4969351;28;20490;-90
2023/01/04 00:49:24;;;;;;;1.30;0.40;;;;;;;;;;4985781;28;20064;-92
2023/01/04 00:51:52;;;;;;;0.93;0.30;;;;;;;;;;4966646;28;20027;-92
2023/01/04 00:54:19;;;;;;;1.45;0.40;;;;;;;;;;4972282;28;20037;-93
2023/01/04 00:56:44;;;;;;;1.48;0.50;;;;;;;;;;4968170;28;20118;-93
2023/01/04 00:59:12;;;;;;;3.85;0.60;;;;;;;;;;4968061;28;20113;-92
2023/01/04 01:01:38;;;;;;;2.13;0.50;;;;;;;;;;4990160;28;20039;-93
2023/01/04 01:04:03;;;;;;;2.38;0.50;;;;;;;;;;4979093;28;20106;-94
2023/01/04 01:06:29;;;;;;;1.60;0.40;;;;;;;;;;4973826;28;20121;-93
2023/01/04 01:08:55;;;;;;;1.85;0.40;;;;;;;;;;4974058;28;20042;-93
2023/01/04 01:11:20;;;;;;;1.40;0.30;;;;;;;;;;4971332;28;20030;-93
2023/01/04 01:13:46;;;;;;;1.85;0.40;;;;;;;;;;4992301;28;20053;-94
2023/01/04 01:16:13;;;;;;;2.65;0.40;;;;;;;;;;4975213;28;20057;-93
2023/01/04 01:18:43;;;;;;;2.53;0.50;;;;;;;;;;5012214;28;20250;-93
2023/01/04 01:21:28;;;;;;;1.02;0.38;;;;;;;;;;4986404;28;20116;-94
2023/01/04 01:24:04;;;;;;;2.97;0.47;;;;;;;;;;4999039;28;20018;-94
2023/01/04 01:26:37;;;;;;;1.20;0.50;;;;;;;;;;4989939;28;20497;-94
2023/01/04 01:29:02;;;;;;;1.70;0.30;;;;;;;;;;4986246;28;20027;-94
2023/01/04 01:31:28;;;;;;;1.35;0.30;;;;;;;;;;4992533;28;20048;-93
2023/01/04 01:33:54;;;;;;;1.27;0.30;;;;;;;;;;4991357;28;20030;-92
2023/01/04 01:36:26;;;;;;;1.10;0.35;;;;;;;;;;4992838;28;20033;-93
2023/01/04 01:38:52;;;;;;;1.25;0.22;;;;;;;;;;4997916;28;20032;-92
2023/01/04 01:41:22;;;;;;;1.33;0.30;;;;;;;;;;4991838;28;20022;-93
2023/01/04 01:43:57;;;;;;;0.75;0.38;;;;;;;;;;5007574;28;20022;-93
2023/01/04 01:46:26;;;;;;;0.73;0.35;;;;;;;;;;4998630;28;20040;-95
2023/01/04 01:48:55;;;;;;;0.80;0.30;;;;;;;;;;5005974;28;20370;-94
2023/01/04 01:51:21;;;;;;;1.52;0.28;;;;;;;;;;4993169;28;20038;-94
2023/01/04 01:53:48;;;;;;;0.38;0.20;;;;;;;;;;4991889;28;20109;-95
2023/01/04 01:56:15;;;;;;;0.60;0.30;;;;;;;;;;5012773;28;20030;-94
2023/01/04 01:58:43;;;;;;;0.65;0.20;;;;;;;;;;4996295;28;20041;-96
2023/01/04 02:01:08;;;;;;;1.65;0.40;;;;;;;;;;5012660;28;20101;-95
2023/01/04 02:03:35;;;;;;;1.40;0.30;;;;;;;;;;4996519;28;20113;-94
2023/01/04 02:06:02;;;;;;;0.82;0.30;;;;;;;;;;5004223;28;20045;-94
2023/01/04 02:08:29;;;;;;;4.10;0.43;;;;;;;;;;5014508;28;20481;-94
2023/01/04 02:10:54;;;;;;;26.38;1.60;;;;;;;;;;4994713;28;20022;-94
2023/01/04 02:13:22;;;;;;;8.98;0.85;;;;;;;;;;5026022;28;20028;-94
2023/01/04 02:15:54;;;;;;;0.43;0.20;;;;;;;;;;4988663;28;20163;-94
2023/01/04 02:18:28;;;;;;;0.30;0.10;;;;;;;;;;4990489;28;20027;-95
2023/01/04 02:21:18;;;;;;;0.60;0.17;;;;;;;;;;4990041;28;20019;-96
2023/01/04 02:23:49;;;;;;;0.43;0.20;;;;;;;;;;4994293;28;20069;-95
2023/01/04 02:26:17;;;;;;;0.80;0.20;;;;;;;;;;4994587;28;20030;-93
2023/01/04 02:28:56;;;;;;;2.17;0.40;;;;;;;;;;4998554;28;20026;-94
2023/01/04 02:31:28;;;;;;;0.50;0.20;;;;;;;;;;4990789;28;20022;-93
2023/01/04 02:34:04;;;;;;;0.50;0.10;;;;;;;;;;4987411;28;20033;-91
2023/01/04 02:36:47;;;;;;;0.40;0.20;;;;;;;;;;5008328;28;21074;-90
2023/01/04 02:39:15;;;;;;;0.55;0.20;;;;;;;;;;5000586;28;20101;-89
2023/01/04 02:41:44;;;;;;;0.65;0.20;;;;;;;;;;4986789;28;20041;-91
2023/01/04 02:47:09;;;;;;;0.38;0.15;;;;;;;;;;5006314;28;20028;-92
2023/01/04 02:52:18;;;;;;;1.08;0.35;;;;;;;;;;5012486;28;20093;-91
2023/01/04 02:54:44;;;;;;;0.93;0.30;;;;;;;;;;5003102;28;20029;-92
2023/01/04 02:57:29;;;;;;;2.90;0.45;;;;;;;;;;4990690;28;20014;-91
2023/01/04 02:59:54;;;;;;;1.33;0.40;;;;;;;;;;4989347;28;20489;-92
2023/01/04 03:08:18;;;;;;;2.17;0.50;;;;;;;;;;5018478;28;20151;-94
2023/01/04 03:10:47;;;;;;;0.93;0.20;;;;;;;;;;5019815;28;20044;-95
2023/01/04 03:13:16;;;;;;;0.73;0.20;;;;;;;;;;5005999;28;20018;-95
2023/01/04 03:15:47;;;;;;;0.32;0.20;;;;;;;;;;5022028;28;20513;-94
2023/01/04 03:18:15;;;;;;;2.20;0.35;;;;;;;;;;5003820;28;20018;-94
2023/01/04 03:20:41;;;;;;;1.08;0.22;;;;;;;;;;5005142;28;20021;-95
2023/01/04 03:36:59;;;;;;;1.50;0.45;;;;;;;;;;5019974;28;20103;-94
2023/01/04 03:50:50;;;;;;;3.47;1.00;;;;;;;;;;5021367;28;20041;-93
2023/01/04 03:53:15;;;;;;;2.85;0.80;;;;;;;;;;5023095;28;20056;-94
2023/01/04 03:55:41;;;;;;;4.78;1.00;;;;;;;;;;5001144;28;20828;-94
2023/01/04 03:58:07;;;;;;;3.22;0.70;;;;;;;;;;5002751;28;20032;-95
2023/01/04 04:00:33;;;;;;;3.60;0.77;;;;;;;;;;5020517;28;20385;-94
2023/01/04 04:03:06;;;;;;;2.30;0.45;;;;;;;;;;5001646;28;20065;-94
2023/01/04 04:08:28;;;;;;;2.25;0.50;;;;;;;;;;5019263;28;20515;-93
2023/01/04 04:11:28;;;;;;;2.83;0.60;;;;;;;;;;5020863;28;20024;-93
2023/01/04 04:13:42;;;;;;;1.50;0.30;;;;;;;;;;5020041;28;20535;-94
2023/01/04 04:16:08;;;;;;;3.83;0.43;;;;;;;;;;5002453;28;20033;-94
2023/01/04 04:18:33;;;;;;;4.00;0.60;;;;;;;;;;5010035;28;21116;-94
2023/01/04 04:20:58;;;;;;;4.93;0.53;;;;;;;;;;5017221;28;20654;-93
2023/01/04 04:23:23;;;;;;;1.38;0.40;;;;;;;;;;5022242;28;20709;-93
2023/01/04 04:25:49;;;;;;;3.97;0.57;;;;;;;;;;5004553;28;20018;-94
2023/01/04 04:28:14;;;;;;;2.83;0.50;;;;;;;;;;5005093;28;20033;-95
2023/01/04 04:30:39;;;;;;;5.43;0.63;;;;;;;;;;5004354;28;20360;-93
2023/01/04 04:33:04;;;;;;;4.47;0.52;;;;;;;;;;5003915;28;20316;-93
2023/01/04 04:35:30;;;;;;;4.93;0.98;;;;;;;;;;5002441;28;20040;-94
2023/01/04 04:37:55;;;;;;;6.00;1.13;;;;;;;;;;5002979;28;20025;-94
2023/01/04 04:43:06;;;;;;;6.13;1.20;;;;;;;;;;5024086;28;20122;-96
2023/01/04 04:45:31;;;;;;;10.48;1.15;;;;;;;;;;5022807;28;20033;-93
2023/01/04 04:47:57;;;;;;;8.87;1.10;;;;;;;;;;5021894;28;20024;-93
2023/01/04 04:50:22;;;;;;;10.60;1.10;;;;;;;;;;5006400;28;20263;-96
2023/01/04 04:52:47;;;;;;;7.85;1.15;;;;;;;;;;5004014;28;20270;-95
2023/01/04 04:55:12;;;;;;;10.30;1.27;;;;;;;;;;5006384;28;20587;-94
2023/01/04 04:57:38;;;;;;;7.40;1.20;;;;;;;;;;5007663;28;20338;-94
2023/01/04 05:00:03;;;;;;;9.68;1.60;;;;;;;;;;5003584;28;20068;-95
2023/01/04 05:02:28;;;;;;;8.38;1.33;;;;;;;;;;5003651;28;20091;-95
2023/01/04 05:04:54;;;;;;;7.47;1.33;;;;;;;;;;5005424;28;20034;-95
2023/01/04 05:07:19;;;;;;;9.52;1.20;;;;;;;;;;5005942;28;20267;-95
2023/01/04 05:09:44;;;;;;;9.43;1.63;;;;;;;;;;5004660;28;20038;-95
2023/01/04 05:14:55;;;;;;;12.23;1.60;;;;;;;;;;5022117;28;20076;-93
2023/01/04 05:17:21;;;;;;;10.73;1.30;;;;;;;;;;5007841;28;20056;-95
2023/01/04 05:19:46;;;;;;;12.50;1.50;;;;;;;;;;5019694;28;20017;-95
2023/01/04 05:22:12;;;;;;;14.57;2.43;;;;;;;;;;5025811;28;20025;-94
2023/01/04 05:24:37;;;;;;;11.80;1.60;;;;;;;;;;5006103;28;20332;-94
2023/01/04 05:27:02;;;;;;;13.37;2.03;;;;;;;;;;5011271;28;20033;-95
2023/01/04 05:32:11;;;;;;;11.13;1.77;;;;;;;;;;5025561;28;20056;-95
2023/01/04 05:34:37;;;;;;;9.30;1.50;;;;;;;;;;5004729;28;20025;-95
2023/01/04 05:37:02;;;;;;;14.38;2.15;;;;;;;;;;5005829;28;20025;-93
2023/01/04 05:39:29;;;;;;;11.90;1.63;;;;;;;;;;5028629;28;20136;-96
2023/01/04 05:44:40;;;;;;;15.48;2.25;;;;;;;;;;5022461;28;20040;-95
2023/01/04 05:47:05;;;;;;;12.07;2.05;;;;;;;;;;5005862;28;20037;-96
2023/01/04 05:49:30;;;;;;;13.90;1.93;;;;;;;;;;5007332;28;20021;-94
2023/01/04 05:51:55;;;;;;;16.87;2.30;;;;;;;;;;5007350;28;20263;-93
2023/01/04 05:54:20;;;;;;;12.45;1.90;;;;;;;;;;5007166;28;20271;-95
2023/01/04 05:56:46;;;;;;;14.95;2.35;;;;;;;;;;5010056;28;20033;-95
2023/01/04 05:59:11;;;;;;;12.20;1.97;;;;;;;;;;5016196;28;20033;-94
2023/01/04 06:01:36;;;;;;;12.53;2.33;;;;;;;;;;5005510;28;20270;-96
2023/01/04 06:04:01;;;;;;;13.65;2.33;;;;;;;;;;5004458;28;20357;-95
2023/01/04 06:06:27;;;;;;;14.20;2.75;;;;;;;;;;5006285;28;20573;-95
2023/01/04 06:08:52;;;;;;;16.03;2.57;;;;;;;;;;5009502;28;20017;-94
2023/01/04 06:11:17;;;;;;;11.27;1.88;;;;;;;;;;5008236;28;20290;-95
2023/01/04 06:13:44;;;;;;;14.60;2.00;;;;;;;;;;5006945;28;20021;-95
2023/01/04 06:16:09;;;;;;;12.20;2.00;;;;;;;;;;5005560;28;20033;-95
2023/01/04 06:18:34;;;;;;;10.75;1.77;;;;;;;;;;5017196;28;20052;-95
2023/01/04 06:20:59;;;;;;;11.32;1.67;;;;;;;;;;5009209;28;20017;-94
2023/01/04 06:23:25;;;;;;;10.77;1.63;;;;;;;;;;5018218;28;20060;-94
2023/01/04 06:25:50;;;;;;;12.05;1.88;;;;;;;;;;5010689;28;20267;-96
2023/01/04 06:28:15;;;;;;;11.00;1.80;;;;;;;;;;5007663;28;20061;-96
2023/01/04 06:30:40;;;;;;;17.13;2.50;;;;;;;;;;5007962;28;20076;-95
2023/01/04 06:33:06;;;;;;;12.75;2.00;;;;;;;;;;5007878;28;20036;-96
2023/01/04 06:35:31;;;;;;;16.43;2.43;;;;;;;;;;5003070;28;20051;-95
2023/01/04 06:37:56;;;;;;;15.93;2.88;;;;;;;;;;5004793;28;20508;-93
2023/01/04 06:42:47;;;;;;;16.00;2.72;;;;;;;;;;5025142;28;20057;-95
2023/01/04 06:45:13;;;;;;;21.58;3.67;;;;;;;;;;5003521;28;20025;-93
2023/01/04 06:47:39;;;;;;;17.27;2.63;;;;;;;;;;5004174;28;20117;-95
2023/01/04 06:50:04;;;;;;;16.30;2.95;;;;;;;;;;5002599;28;20496;-93
2023/01/04 06:52:29;;;;;;;22.15;3.33;;;;;;;;;;5020495;28;20037;-94
2023/01/04 06:54:55;;;;;;;23.70;3.60;;;;;;;;;;5020597;28;20480;-96
2023/01/04 06:57:20;;;;;;;20.15;3.70;;;;;;;;;;5021341;28;20604;-93
2023/01/04 06:59:45;;;;;;;21.17;3.38;;;;;;;;;;5004742;28;20104;-93
2023/01/04 07:02:14;;;;;;;21.30;3.10;;;;;;;;;;5006812;28;20029;-96
2023/01/04 07:04:40;;;;;;;27.13;4.35;;;;;;;;;;5007501;28;20048;-95
2023/01/04 07:07:05;;;;;;;22.67;4.03;;;;;;;;;;5007337;28;20676;-95
2023/01/04 07:09:30;;;;;;;20.98;3.92;;;;;;;;;;5007774;28;20619;-95
2023/01/04 07:11:57;;;;;;;22.65;3.55;;;;;;;;;;5008820;28;20429;-95
2023/01/04 07:14:22;;;;;;;23.17;3.58;;;;;;;;;;5006157;28;20025;-95
2023/01/04 07:16:48;;;;;;;17.38;3.30;;;;;;;;;;5007309;28;20411;-96
2023/01/04 07:19:15;;;;;;;20.80;3.20;;;;;;;;;;5007321;28;20025;-94
2023/01/04 07:21:41;;;;;;;20.67;3.33;;;;;;;;;;5017613;28;20025;-95
2023/01/04 07:24:06;;;;;;;26.77;4.00;;;;;;;;;;5018952;28;20087;-94
2023/01/04 07:26:32;;;;;;;23.48;3.35;;;;;;;;;;5021948;28;20149;-96
2023/01/04 07:29:16;;;;;;;27.15;3.63;;;;;;;;;;5008842;28;20480;-95
2023/01/04 07:31:41;;;;;;;;;;;;;;;;;;5011074;28;20052;-95
2023/01/04 07:34:06;;;;;;;17.50;2.97;;;;;;;;;;5007852;28;19956;-96
2023/01/04 07:36:31;;;;;;;15.60;3.28;;;;;;;;;;5006184;28;20057;-95
2023/01/04 07:39:01;;;;;;;19.17;2.88;;;;;;;;;;5022825;28;20021;-96
2023/01/04 07:41:30;;;;;;;116.32;8.23;;;;;;;;;;5008262;28;20087;-96
2023/01/04 07:43:56;;;;;;;23.23;3.05;;;;;;;;;;5004883;28;20025;-96
2023/01/04 07:46:23;;;;;;;21.92;3.00;;;;;;;;;;5004980;28;20049;-96
2023/01/04 07:48:49;;;;;;;16.55;3.28;;;;;;;;;;5013477;28;20514;-95
2023/01/04 07:51:20;;;;;;;22.87;3.63;;;;;;;;;;5025174;28;20033;-95
2023/01/04 07:53:45;;;;;;;15.02;2.45;;;;;;;;;;5008766;28;20291;-95
2023/01/04 07:56:10;;;;;;;14.43;2.43;;;;;;;;;;5005555;28;20067;-94
2023/01/04 07:58:38;;;;;;;18.07;3.50;;;;;;;;;;4999219;28;20781;-95
2023/01/04 08:01:07;;;;;;;18.58;3.10;;;;;;;;;;5003952;28;20283;-95
2023/01/04 08:03:32;;;;;;;13.38;2.95;;;;;;;;;;5018007;28;20107;-95
2023/01/04 08:05:57;;;;;;;18.87;2.70;;;;;;;;;;5003380;28;20032;-93
2023/01/04 08:08:23;;;;;;;20.67;3.00;;;;;;;;;;5018150;28;20337;-95
2023/01/04 08:10:49;;;;;;;20.88;3.45;;;;;;;;;;5018377;28;20765;-93
2023/01/04 08:13:15;;;;;;;15.77;2.97;;;;;;;;;;5002942;28;20065;-95
2023/01/04 08:15:40;;;;;;;19.90;3.08;;;;;;;;;;5000581;28;20056;-94
2023/01/04 08:18:06;;;;;;;17.42;3.03;;;;;;;;;;5000655;28;20014;-95
2023/01/04 08:20:32;;;;;;;18.42;2.55;;;;;;;;;;5000694;28;20026;-95
2023/01/04 08:22:57;;;;;;;16.45;2.80;;;;;;;;;;5020621;28;20081;-95
2023/01/04 08:25:22;;;;;;;18.52;3.60;;;;;;;;;;5004262;28;20060;-94
2023/01/04 08:27:48;;;;;;;18.40;2.63;;;;;;;;;;5000034;28;20029;-95
2023/01/04 08:30:13;;;;;;;20.20;3.13;;;;;;;;;;5001382;28;20301;-92
2023/01/04 08:32:39;;;;;;;16.33;2.63;;;;;;;;;;4996893;28;20056;-94
2023/01/04 08:35:04;;;;;;;16.35;2.75;;;;;;;;;;5000202;28;20400;-94
2023/01/04 08:37:30;;;;;;;19.08;2.65;;;;;;;;;;5016117;28;20543;-93
2023/01/04 08:39:56;;;;;;;16.92;2.97;;;;;;;;;;5000895;28;20018;-94
2023/01/04 08:42:21;;;;;;;21.02;2.85;;;;;;;;;;5004876;28;20028;-96
2023/01/04 08:44:46;;;;;;;17.47;3.03;;;;;;;;;;5003784;28;20396;-95
2023/01/04 08:47:11;;;;;;;18.73;3.13;;;;;;;;;;4998750;28;21076;-94
2023/01/04 08:49:37;;;;;;;13.23;2.50;;;;;;;;;;5015300;28;20025;-95
2023/01/04 08:52:02;;;;;;;19.70;2.77;;;;;;;;;;4996595;28;20052;-95
2023/01/04 08:54:27;;;;;;;16.15;2.90;;;;;;;;;;4997530;28;20344;-94
2023/01/04 08:56:52;;;;;;;16.77;2.60;;;;;;;;;;4996655;28;20480;-93
2023/01/04 08:59:19;;;;;;;15.45;2.83;;;;;;;;;;5002729;28;20056;-94
2023/01/04 09:01:44;;;;;;;20.10;3.28;;;;;;;;;;5002495;28;20379;-94
2023/01/04 09:04:10;;;;;;;22.65;3.03;;;;;;;;;;5000371;28;20121;-93
2023/01/04 09:07:14;;;;;;;15.80;3.17;;;;;;;;;;5011504;28;20037;-96
2023/01/04 09:09:39;;;;;;;;;;;;;;;;;;4949403;28;20565;-94
2023/01/04 09:12:04;;;;;;;17.70;2.60;;;;;;;;;;4945306;28;19997;-94
2023/01/04 09:14:52;;;;;;;18.85;2.55;;;;;;;;;;4947098;28;20022;-96
2023/01/04 09:17:18;;;;;;;19.83;2.70;;;;;;;;;;4962514;28;20483;-95
2023/01/04 09:19:47;;;;;;;20.33;2.63;;;;;;;;;;4948829;28;20042;-96
2023/01/04 09:22:18;;;;;;;19.67;3.08;;;;;;;;;;4965589;28;20106;-96
2023/01/04 09:25:07;;;;;;;16.27;2.75;;;;;;;;;;4953257;28;20482;-96
2023/01/04 09:27:35;;;;;;;23.55;3.88;;;;;;;;;;4968583;28;20043;-95
2023/01/04 09:30:01;;;;;;;21.95;3.25;;;;;;;;;;4970233;28;20092;-94
2023/01/04 09:32:26;;;;;;;18.90;2.85;;;;;;;;;;4948336;28;20056;-94
2023/01/04 09:34:52;;;;;;;18.08;2.80;;;;;;;;;;4948911;28;20047;-92
2023/01/04 09:37:17;;;;;;;21.50;3.15;;;;;;;;;;4950783;28;20027;-96
2023/01/04 09:39:49;;;;;;;16.00;2.90;;;;;;;;;;4976608;28;20064;-95
2023/01/04 09:42:43;;;;;;;18.60;3.10;;;;;;;;;;5004376;28;20025;-95
2023/01/04 09:45:15;;;;;;;23.40;2.95;;;;;;;;;;5005350;28;20294;-96
2023/01/04 09:47:44;;;;;;;24.67;3.40;;;;;;;;;;5025461;28;20041;-94
2023/01/04 09:50:27;;;;;;;29.17;3.90;;;;;;;;;;5004686;28;20291;-95
2023/01/04 09:52:53;;;;;;;15.52;3.38;;;;;;;;;;5002745;28;20361;-96
2023/01/04 09:55:20;;;;;;;18.90;3.00;;;;;;;;;;5004943;28;20057;-95
2023/01/04 09:57:51;;;;;;;21.08;3.13;;;;;;;;;;5003519;28;20278;-96
2023/01/04 10:00:25;;;;;;;18.95;3.65;;;;;;;;;;5002857;28;20039;-94
2023/01/04 10:03:09;;;;;;;22.55;2.60;;;;;;;;;;5021497;28;20064;-93
2023/01/04 10:05:34;;;;;;;19.75;2.90;;;;;;;;;;5002073;28;20049;-93
2023/01/04 10:08:00;;;;;;;21.98;3.70;;;;;;;;;;5006010;28;20075;-94
2023/01/04 10:10:29;;;;;;;19.73;3.08;;;;;;;;;;5014755;28;20048;-96
2023/01/04 10:12:57;;;;;;;19.92;3.58;;;;;;;;;;5008622;28;20147;-94
2023/01/04 10:15:39;;;;;;;18.00;2.95;;;;;;;;;;5007545;28;20132;-94
2023/01/04 10:18:10;;;;;;;18.20;2.92;;;;;;;;;;5028332;28;20104;-96
2023/01/04 10:20:39;;;;;;;15.43;2.47;;;;;;;;;;5007054;28;20021;-92
2023/01/04 10:23:26;;;;;;;14.93;3.17;;;;;;;;;;5008395;28;20500;-93
2023/01/04 10:26:10;;;;;;;15.25;2.88;;;;;;;;;;5016492;28;20402;-93
2023/01/04 10:28:43;;;;;;;19.23;2.55;;;;;;;;;;5010245;28;20022;-95
2023/01/04 10:31:12;;;;;;;21.42;3.28;;;;;;;;;;5009083;28;20028;-94
2023/01/04 10:33:45;;;;;;;15.32;3.08;;;;;;;;;;5024083;28;20029;-93
2023/01/04 10:36:32;;;;;;;17.23;3.05;;;;;;;;;;5026194;28;20044;-93
2023/01/04 10:38:59;;;;;;;21.70;3.75;;;;;;;;;;5016079;28;20029;-95
2023/01/04 10:41:37;;;;;;;18.08;2.17;;;;;;;;;;5017660;28;20145;-94
2023/01/04 10:44:26;;;;;;;16.20;3.40;;;;;;;;;;5021134;28;20025;-95
2023/01/04 10:47:04;;;;;;;15.68;2.88;;;;;;;;;;5004706;28;20030;-94
2023/01/04 10:49:41;;;;;;;17.33;2.97;;;;;;;;;;5007564;28;20465;-94
2023/01/04 10:52:19;;;;;;;21.67;2.75;;;;;;;;;;5005153;28;20022;-95
2023/01/04 10:54:46;;;;;;;18.33;3.60;;;;;;;;;;5007691;28;20399;-95
2023/01/04 10:57:17;;;;;;;16.27;2.58;;;;;;;;;;5008023;28;20886;-95
2023/01/04 10:59:44;;;;;;;18.65;3.05;;;;;;;;;;5009211;28;20022;-94
2023/01/04 11:02:28;;;;;;;13.95;2.30;;;;;;;;;;5024304;28;20032;-94
2023/01/04 11:04:56;;;;;;;12.75;2.65;;;;;;;;;;5027370;28;20061;-93
2023/01/04 11:07:30;;;;;;;22.27;3.05;;;;;;;;;;5009435;28;20021;-95
2023/01/04 11:10:05;;;;;;;25.33;2.67;;;;;;;;;;5005650;28;20025;-94
2023/01/04 11:12:30;;;;;;;13.95;2.58;;;;;;;;;;5010343;28;20053;-96
2023/01/04 11:14:56;;;;;;;12.77;2.35;;;;;;;;;;5007167;28;20068;-95
2023/01/04 11:17:22;;;;;;;12.70;1.92;;;;;;;;;;5006454;28;20028;-93
2023/01/04 11:19:47;;;;;;;15.75;2.67;;;;;;;;;;5024004;28;20143;-93
2023/01/04 11:22:19;;;;;;;14.10;2.10;;;;;;;;;;5000856;28;20109;-95
2023/01/04 11:24:47;;;;;;;16.15;2.90;;;;;;;;;;5009575;28;20092;-95
2023/01/04 11:27:19;;;;;;;16.50;2.35;;;;;;;;;;5028906;28;20022;-94
2023/01/04 11:30:02;;;;;;;20.35;2.90;;;;;;;;;;5023706;28;20014;-95
2023/01/04 11:32:34;;;;;;;23.20;2.97;;;;;;;;;;5007076;28;20025;-95
2023/01/04 11:34:59;;;;;;;14.52;2.40;;;;;;;;;;5002572;28;20029;-94
2023/01/04 11:37:29;;;;;;;17.38;2.67;;;;;;;;;;5026035;28;20029;-94
2023/01/04 11:40:13;;;;;;;21.42;3.63;;;;;;;;;;5008879;28;20040;-93
2023/01/04 11:42:38;;;;;;;17.17;3.30;;;;;;;;;;5008649;28;20025;-94
2023/01/04 11:45:04;;;;;;;20.63;2.90;;;;;;;;;;5028450;28;20025;-94
2023/01/04 11:47:30;;;;;;;18.70;3.10;;;;;;;;;;5008356;28;20313;-95
2023/01/04 11:49:56;;;;;;;17.45;3.40;;;;;;;;;;5029499;28;20558;-95
2023/01/04 11:52:29;;;;;;;18.10;2.47;;;;;;;;;;5009874;28;20042;-95
2023/01/04 11:54:55;;;;;;;22.13;2.88;;;;;;;;;;5012052;28;21225;-93
2023/01/04 11:57:20;;;;;;;19.05;3.05;;;;;;;;;;5024137;28;20030;-95
2023/01/04 12:00:06;;;;;;;13.88;2.08;;;;;;;;;;5021694;28;20472;-93
2023/01/04 12:02:31;;;;;;;15.00;2.45;;;;;;;;;;5005263;28;20022;-94
2023/01/04 12:05:00;;;;;;;19.87;3.03;;;;;;;;;;5009569;28;20036;-96
2023/01/04 12:07:30;;;;;;;17.70;2.78;;;;;;;;;;5003622;28;20278;-95
2023/01/04 12:09:57;;;;;;;16.55;2.72;;;;;;;;;;5000512;28;20068;-95
2023/01/04 12:12:26;;;;;;;22.20;3.10;;;;;;;;;;5007959;28;20060;-94
2023/01/04 12:14:51;;;;;;;18.42;2.53;;;;;;;;;;5004544;28;20036;-96
2023/01/04 12:17:35;;;;;;;18.45;2.80;;;;;;;;;;5006015;28;20397;-93
2023/01/04 12:20:02;;;;;;;16.30;2.92;;;;;;;;;;5002360;28;20025;-95
2023/01/04 12:22:59;;;;;;;21.77;3.65;;;;;;;;;;5020848;28;20081;-96
2023/01/04 12:25:51;;;;;;;19.50;3.17;;;;;;;;;;5044208;23;20077;-90
2023/01/04 12:28:46;;;;;;;18.15;2.50;;;;;;;;;;5002791;28;20041;-91
2023/01/04 12:31:28;;;;;;;16.85;2.38;;;;;;;;;;5000638;28;20037;-92
2023/01/04 12:33:57;;;;;;;15.65;2.47;;;;;;;;;;5001427;28;20029;-91
2023/01/04 12:36:34;;;;;;;22.58;3.35;;;;;;;;;;5018276;28;20030;-92
2023/01/04 12:39:02;;;;;;;18.50;2.50;;;;;;;;;;5005459;28;20680;-92
2023/01/04 12:41:33;;;;;;;16.45;2.53;;;;;;;;;;5002901;28;20116;-93
2023/01/04 12:44:00;;;;;;;17.10;2.15;;;;;;;;;;5007530;23;20064;-95
2023/01/04 12:49:27;;;;;;;17.83;2.50;;;;;;;;;;5007480;28;20183;-95
2023/01/04 12:52:12;;;;;;;19.77;3.38;;;;;;;;;;4985044;28;20053;-94
2023/01/04 12:54:45;;;;;;;14.57;3.17;;;;;;;;;;4978442;28;20026;-94
2023/01/04 12:57:10;;;;;;;16.95;2.70;;;;;;;;;;4976857;28;20014;-94
2023/01/04 12:59:51;;;;;;;17.98;2.58;;;;;;;;;;4986961;28;20037;-93
2023/01/04 13:02:16;;;;;;;14.35;2.50;;;;;;;;;;5005364;28;20031;-96
2023/01/04 13:04:42;;;;;;;20.65;3.10;;;;;;;;;;4987998;28;20136;-96
2023/01/04 13:07:18;;;;;;;18.00;2.85;;;;;;;;;;4977026;28;20029;-96
2023/01/04 13:09:51;;;;;;;15.13;2.35;;;;;;;;;;4982841;28;20045;-95
2023/01/04 13:12:17;;;;;;;;;;;;;;;;;;4983817;28;20027;-95
2023/01/04 13:14:45;;;;;;;10.25;2.28;;;;;;;;;;4982265;28;19913;-94
2023/01/04 13:17:21;;;;;;;18.42;2.63;;;;;;;;;;4987497;28;20030;-95
2023/01/04 13:19:47;;;;;;;10.00;2.15;;;;;;;;;;4985380;28;20050;-95
2023/01/04 13:22:18;;;;;;;15.18;2.30;;;;;;;;;;4983714;28;20054;-96
2023/01/04 13:24:44;;;;;;;10.20;2.10;;;;;;;;;;4988078;28;20821;-95
2023/01/04 13:27:17;;;;;;;18.10;2.65;;;;;;;;;;4990178;28;20021;-95
2023/01/04 13:29:43;;;;;;;18.60;2.70;;;;;;;;;;5002734;28;20022;-95
2023/01/04 13:32:12;;;;;;;14.10;2.40;;;;;;;;;;4992320;28;20032;-94
2023/01/04 13:34:51;;;;;;;13.50;2.40;;;;;;;;;;4997208;28;20156;-96
2023/01/04 13:37:45;;;;;;;13.55;1.90;;;;;;;;;;5002233;28;20063;-95
2023/01/04 13:40:15;;;;;;;14.27;2.35;;;;;;;;;;4976796;28;20144;-94
2023/01/04 13:42:42;;;;;;;13.93;2.50;;;;;;;;;;5006324;28;20045;-94
2023/01/04 13:45:07;;;;;;;11.07;2.30;;;;;;;;;;5008717;28;20053;-96
2023/01/04 13:47:34;;;;;;;15.93;2.47;;;;;;;;;;5004886;28;20026;-95
2023/01/04 13:50:00;;;;;;;12.73;2.17;;;;;;;;;;5005076;28;20040;-96
2023/01/04 13:52:26;;;;;;;11.73;2.35;;;;;;;;;;5003406;28;20022;-95
2023/01/04 13:55:09;;;;;;;11.32;2.03;;;;;;;;;;5008943;28;20076;-96
2023/01/04 13:57:34;;;;;;;9.38;1.85;;;;;;;;;;5006489;28;20029;-94
2023/01/04 14:00:02;;;;;;;12.88;2.28;;;;;;;;;;5000982;28;20017;-96
2023/01/04 14:02:30;;;;;;;13.48;2.28;;;;;;;;;;5002791;28;21560;-94
2023/01/04 14:04:57;;;;;;;13.43;2.13;;;;;;;;;;5000048;28;20026;-96
2023/01/04 14:07:23;;;;;;;8.82;1.55;;;;;;;;;;5023710;28;20028;-96
2023/01/04 14:09:52;;;;;;;10.10;1.73;;;;;;;;;;5005540;28;20538;-96
2023/01/04 14:12:25;;;;;;;10.25;1.92;;;;;;;;;;5004426;28;20564;-94
2023/01/04 14:14:50;;;;;;;11.07;1.80;;;;;;;;;;5001387;28;20026;-96
2023/01/04 14:20:34;;;;;;;12.90;1.80;;;;;;;;;;5016984;28;20443;-95
2023/01/04 14:23:30;;;;;;;9.05;1.92;;;;;;;;;;5016242;28;20450;-94
2023/01/04 14:26:03;;;;;;;8.30;1.63;;;;;;;;;;4994764;28;20091;-96
2023/01/04 14:28:42;;;;;;;10.07;1.70;;;;;;;;;;5009153;28;20022;-95
2023/01/04 14:31:20;;;;;;;7.75;1.88;;;;;;;;;;4976224;28;20038;-96
2023/01/04 15:20:42;;;;;;;15.77;2.90;;;;;;;;;;5022700;28;20046;-95
2023/01/04 15:23:21;;;;;;;10.00;1.88;;;;;;;;;;5026589;28;20036;-96
2023/01/04 15:26:04;;;;;;;13.18;2.40;;;;;;;;;;5013265;28;20030;-95
2023/01/04 15:28:52;;;;;;;10.45;2.38;;;;;;;;;;5010491;28;20022;-96
2023/01/04 15:31:40;;;;;;;17.15;2.80;;;;;;;;;;5007158;28;20034;-95
2023/01/04 15:34:21;;;;;;;;;;;;;;;;;;;;;
2023/01/04 15:36:51;;;;;;;10.40;2.15;;;;;;;;;;5031321;28;20101;-96
2023/01/04 15:39:25;;;;;;;11.57;1.90;;;;;;;;;;5031847;28;20042;-96
2023/01/04 15:45:00;;;;;;;;;;;;;;;;;;5031925;28;20547;-96
2023/01/04 15:47:28;;;;;;;9.07;1.88;;;;;;;;;;5015300;28;20008;-96
2023/01/04 15:49:59;;;;;;;10.75;2.10;;;;;;;;;;5016242;28;20045;-96
2023/01/04 15:52:25;;;;;;;13.02;2.38;;;;;;;;;;5009544;28;20037;-96
2023/01/04 15:54:54;;;;;;;12.25;2.15;;;;;;;;;;5009919;28;20040;-96
2023/01/04 15:57:22;;;;;;;12.48;2.15;;;;;;;;;;5012107;28;20909;-96
2023/01/04 15:59:54;;;;;;;12.57;2.35;;;;;;;;;;5013301;28;20025;-95
2023/01/04 16:02:24;;;;;;;12.05;2.17;;;;;;;;;;5021794;28;20028;-96
2023/01/04 16:04:50;;;;;;;12.07;2.25;;;;;;;;;;5014216;28;20013;-96
2023/01/04 16:07:15;;;;;;;13.07;2.33;;;;;;;;;;5002787;28;20029;-95
2023/01/04 16:09:41;;;;;;;13.38;2.67;;;;;;;;;;5008717;28;20075;-96
2023/01/04 16:15:02;;;;;;;13.18;2.38;;;;;;;;;;5030707;28;20099;-95
2023/01/04 16:17:28;;;;;;;17.95;2.45;;;;;;;;;;5007715;28;20028;-95
2023/01/04 16:20:06;;;;;;;11.95;2.05;;;;;;;;;;5004759;28;20045;-96
2023/01/04 16:22:45;;;;;;;12.15;2.40;;;;;;;;;;5027397;28;20083;-96
2023/01/04 16:25:31;;;;;;;13.07;2.30;;;;;;;;;;5010048;28;20108;-96
2023/01/04 16:27:57;;;;;;;15.02;2.25;;;;;;;;;;5011518;28;20035;-94
2023/01/04 16:30:22;;;;;;;14.52;2.42;;;;;;;;;;5009081;28;20029;-96
2023/01/04 16:32:56;;;;;;;10.88;2.40;;;;;;;;;;5006787;28;20493;-96
2023/01/04 16:35:21;;;;;;;;;;;;;;;;;;5023120;28;20501;-96
2023/01/04 16:37:51;;;;;;;10.77;1.85;;;;;;;;;;5014259;28;19917;-96
2023/01/04 16:40:18;;;;;;;15.65;2.58;;;;;;;;;;5021772;28;20029;-96